sensor_id;sensor_type;location;lat;lon;timestamp;P1;durP1;ratioP1;P2;durP2;ratioP2
37241;SDS011;23135;51.078;12.108;2023-04-29T00:00:03;10.85;;;8.07;;
37241;SDS011;23135;51.078;12.108;2023-04-29T00:02:31;10.85;;;8.23;;
37241;SDS011;23135;51.078;12.108;2023-04-29T00:04:57;12.20;;;9.25;;
37241;SDS011;23135;51.078;12.108;2023-04-29T00:07:23;12.13;;;9.77;;
37241;SDS011;23135;51.078;12.108;2023-04-29T00:09:49;12.13;;;8.52;;
37241;SDS011;23135;51.078;12.108;2023-04-29T00:12:15;14.40;;;8.70;;
37241;SDS011;23135;51.078;12.108;2023-04-29T00:14:40;12.30;;;8.70;;
37241;SDS011;23135;51.078;12.108;2023-04-29T00:17:07;12.60;;;8.50;;
37241;SDS011;23135;51.078;12.108;2023-04-29T00:19:33;14.45;;;9.52;;
37241;SDS011;23135;51.078;12.108;2023-04-29T00:21:59;13.55;;;9.88;;
37241;SDS011;23135;51.078;12.108;2023-04-29T00:24:25;12.27;;;8.73;;
37241;SDS011;23135;51.078;12.108;2023-04-29T00:26:51;14.65;;;9.50;;
37241;SDS011;23135;51.078;12.108;2023-04-29T00:29:16;12.77;;;9.77;;
37241;SDS011;23135;51.078;12.108;2023-04-29T00:31:42;14.88;;;10.60;;
37241;SDS011;23135;51.078;12.108;2023-04-29T00:34:08;13.50;;;10.07;;
37241;SDS011;23135;51.078;12.108;2023-04-29T00:36:34;12.48;;;10.45;;
37241;SDS011;23135;51.078;12.108;2023-04-29T00:39:00;13.80;;;10.57;;
37241;SDS011;23135;51.078;12.108;2023-04-29T00:41:28;14.50;;;10.20;;
37241;SDS011;23135;51.078;12.108;2023-04-29T00:43:54;13.52;;;10.35;;
37241;SDS011;23135;51.078;12.108;2023-04-29T00:46:20;13.38;;;9.98;;
37241;SDS011;23135;51.078;12.108;2023-04-29T00:48:46;14.15;;;10.63;;
37241;SDS011;23135;51.078;12.108;2023-04-29T00:51:11;11.40;;;9.68;;
37241;SDS011;23135;51.078;12.108;2023-04-29T00:53:38;14.05;;;10.15;;
37241;SDS011;23135;51.078;12.108;2023-04-29T00:56:03;15.07;;;9.82;;
37241;SDS011;23135;51.078;12.108;2023-04-29T00:58:31;13.95;;;10.05;;
37241;SDS011;23135;51.078;12.108;2023-04-29T01:00:59;13.48;;;9.48;;
37241;SDS011;23135;51.078;12.108;2023-04-29T01:03:25;13.15;;;9.95;;
37241;SDS011;23135;51.078;12.108;2023-04-29T01:05:56;12.02;;;9.30;;
37241;SDS011;23135;51.078;12.108;2023-04-29T01:11:16;13.52;;;9.68;;
37241;SDS011;23135;51.078;12.108;2023-04-29T01:13:52;15.70;;;10.70;;
37241;SDS011;23135;51.078;12.108;2023-04-29T01:16:28;17.05;;;11.02;;
37241;SDS011;23135;51.078;12.108;2023-04-29T01:19:01;12.77;;;10.35;;
37241;SDS011;23135;51.078;12.108;2023-04-29T01:21:56;14.98;;;10.60;;
37241;SDS011;23135;51.078;12.108;2023-04-29T01:24:22;14.15;;;9.77;;
37241;SDS011;23135;51.078;12.108;2023-04-29T01:26:53;15.65;;;11.25;;
37241;SDS011;23135;51.078;12.108;2023-04-29T01:32:03;16.55;;;10.68;;
37241;SDS011;23135;51.078;12.108;2023-04-29T01:34:33;13.75;;;10.48;;
37241;SDS011;23135;51.078;12.108;2023-04-29T01:42:21;17.05;;;10.57;;
37241;SDS011;23135;51.078;12.108;2023-04-29T01:44:58;18.13;;;10.48;;
37241;SDS011;23135;51.078;12.108;2023-04-29T01:47:29;14.63;;;10.68;;
37241;SDS011;23135;51.078;12.108;2023-04-29T01:49:55;17.30;;;10.57;;
37241;SDS011;23135;51.078;12.108;2023-04-29T01:52:21;18.70;;;12.20;;
37241;SDS011;23135;51.078;12.108;2023-04-29T01:54:47;17.90;;;11.05;;
37241;SDS011;23135;51.078;12.108;2023-04-29T01:57:13;14.95;;;11.07;;
37241;SDS011;23135;51.078;12.108;2023-04-29T01:59:38;19.10;;;11.57;;
37241;SDS011;23135;51.078;12.108;2023-04-29T02:02:04;16.65;;;11.38;;
37241;SDS011;23135;51.078;12.108;2023-04-29T02:04:30;15.00;;;11.07;;
37241;SDS011;23135;51.078;12.108;2023-04-29T02:06:57;14.30;;;11.05;;
37241;SDS011;23135;51.078;12.108;2023-04-29T02:09:23;19.10;;;11.90;;
37241;SDS011;23135;51.078;12.108;2023-04-29T02:11:48;17.65;;;11.05;;
37241;SDS011;23135;51.078;12.108;2023-04-29T02:14:14;16.67;;;12.20;;
37241;SDS011;23135;51.078;12.108;2023-04-29T02:16:42;23.77;;;12.70;;
37241;SDS011;23135;51.078;12.108;2023-04-29T02:19:09;13.77;;;10.77;;
37241;SDS011;23135;51.078;12.108;2023-04-29T02:21:35;16.63;;;11.60;;
37241;SDS011;23135;51.078;12.108;2023-04-29T02:24:00;19.02;;;12.68;;
37241;SDS011;23135;51.078;12.108;2023-04-29T02:26:26;17.70;;;11.55;;
37241;SDS011;23135;51.078;12.108;2023-04-29T02:28:52;15.27;;;12.27;;
37241;SDS011;23135;51.078;12.108;2023-04-29T02:31:17;16.67;;;12.43;;
37241;SDS011;23135;51.078;12.108;2023-04-29T02:33:43;17.95;;;12.80;;
37241;SDS011;23135;51.078;12.108;2023-04-29T02:36:08;16.95;;;12.68;;
37241;SDS011;23135;51.078;12.108;2023-04-29T02:38:34;18.67;;;12.00;;
37241;SDS011;23135;51.078;12.108;2023-04-29T02:41:00;16.83;;;11.95;;
37241;SDS011;23135;51.078;12.108;2023-04-29T02:43:25;17.70;;;11.50;;
37241;SDS011;23135;51.078;12.108;2023-04-29T02:45:54;15.93;;;10.60;;
37241;SDS011;23135;51.078;12.108;2023-04-29T02:48:20;17.15;;;11.98;;
37241;SDS011;23135;51.078;12.108;2023-04-29T02:50:46;18.25;;;12.45;;
37241;SDS011;23135;51.078;12.108;2023-04-29T02:53:11;16.70;;;12.85;;
37241;SDS011;23135;51.078;12.108;2023-04-29T02:55:37;19.60;;;13.02;;
37241;SDS011;23135;51.078;12.108;2023-04-29T02:58:02;16.20;;;11.80;;
37241;SDS011;23135;51.078;12.108;2023-04-29T03:00:28;16.67;;;12.05;;
37241;SDS011;23135;51.078;12.108;2023-04-29T03:02:53;18.08;;;12.32;;
37241;SDS011;23135;51.078;12.108;2023-04-29T03:05:19;18.70;;;12.25;;
37241;SDS011;23135;51.078;12.108;2023-04-29T03:07:44;16.63;;;10.35;;
37241;SDS011;23135;51.078;12.108;2023-04-29T03:10:10;19.30;;;12.85;;
37241;SDS011;23135;51.078;12.108;2023-04-29T03:12:36;18.35;;;12.38;;
37241;SDS011;23135;51.078;12.108;2023-04-29T03:15:03;15.13;;;10.77;;
37241;SDS011;23135;51.078;12.108;2023-04-29T03:17:30;16.60;;;11.80;;
37241;SDS011;23135;51.078;12.108;2023-04-29T03:19:56;16.67;;;11.68;;
37241;SDS011;23135;51.078;12.108;2023-04-29T03:22:22;16.85;;;11.50;;
37241;SDS011;23135;51.078;12.108;2023-04-29T03:24:48;18.10;;;12.35;;
37241;SDS011;23135;51.078;12.108;2023-04-29T03:27:13;16.92;;;12.02;;
37241;SDS011;23135;51.078;12.108;2023-04-29T03:29:39;16.88;;;11.48;;
37241;SDS011;23135;51.078;12.108;2023-04-29T03:32:04;21.85;;;12.00;;
37241;SDS011;23135;51.078;12.108;2023-04-29T03:34:30;19.45;;;11.55;;
37241;SDS011;23135;51.078;12.108;2023-04-29T03:36:56;18.35;;;12.23;;
37241;SDS011;23135;51.078;12.108;2023-04-29T03:39:21;16.63;;;11.65;;
37241;SDS011;23135;51.078;12.108;2023-04-29T03:41:47;16.08;;;11.52;;
37241;SDS011;23135;51.078;12.108;2023-04-29T03:44:12;16.88;;;12.15;;
37241;SDS011;23135;51.078;12.108;2023-04-29T03:46:38;18.60;;;12.05;;
37241;SDS011;23135;51.078;12.108;2023-04-29T03:49:04;19.83;;;12.00;;
37241;SDS011;23135;51.078;12.108;2023-04-29T03:51:29;21.77;;;11.90;;
37241;SDS011;23135;51.078;12.108;2023-04-29T03:53:55;19.35;;;10.90;;
37241;SDS011;23135;51.078;12.108;2023-04-29T03:56:21;23.02;;;13.25;;
37241;SDS011;23135;51.078;12.108;2023-04-29T03:58:49;17.67;;;10.85;;
37241;SDS011;23135;51.078;12.108;2023-04-29T04:01:17;16.92;;;11.05;;
37241;SDS011;23135;51.078;12.108;2023-04-29T04:03:43;14.55;;;10.95;;
37241;SDS011;23135;51.078;12.108;2023-04-29T04:06:09;14.73;;;10.75;;
37241;SDS011;23135;51.078;12.108;2023-04-29T04:08:35;14.80;;;9.88;;
37241;SDS011;23135;51.078;12.108;2023-04-29T04:11:00;13.52;;;10.15;;
37241;SDS011;23135;51.078;12.108;2023-04-29T04:13:29;16.13;;;11.55;;
37241;SDS011;23135;51.078;12.108;2023-04-29T04:15:54;15.55;;;10.90;;
37241;SDS011;23135;51.078;12.108;2023-04-29T04:18:20;17.30;;;12.57;;
37241;SDS011;23135;51.078;12.108;2023-04-29T04:20:45;17.08;;;12.68;;
37241;SDS011;23135;51.078;12.108;2023-04-29T04:23:11;18.15;;;11.85;;
37241;SDS011;23135;51.078;12.108;2023-04-29T04:25:37;18.23;;;11.65;;
37241;SDS011;23135;51.078;12.108;2023-04-29T04:28:03;20.10;;;11.88;;
37241;SDS011;23135;51.078;12.108;2023-04-29T04:30:28;21.05;;;12.73;;
37241;SDS011;23135;51.078;12.108;2023-04-29T04:32:54;17.60;;;11.00;;
37241;SDS011;23135;51.078;12.108;2023-04-29T04:35:20;18.05;;;12.00;;
37241;SDS011;23135;51.078;12.108;2023-04-29T04:37:45;16.05;;;10.63;;
37241;SDS011;23135;51.078;12.108;2023-04-29T04:40:11;16.45;;;10.43;;
37241;SDS011;23135;51.078;12.108;2023-04-29T04:42:37;14.48;;;9.88;;
37241;SDS011;23135;51.078;12.108;2023-04-29T04:45:03;15.15;;;9.85;;
37241;SDS011;23135;51.078;12.108;2023-04-29T04:47:29;15.68;;;10.43;;
37241;SDS011;23135;51.078;12.108;2023-04-29T04:49:55;13.88;;;9.00;;
37241;SDS011;23135;51.078;12.108;2023-04-29T04:52:20;9.93;;;7.25;;
37241;SDS011;23135;51.078;12.108;2023-04-29T04:54:46;12.50;;;8.73;;
37241;SDS011;23135;51.078;12.108;2023-04-29T04:57:12;11.55;;;8.07;;
37241;SDS011;23135;51.078;12.108;2023-04-29T04:59:38;15.20;;;7.38;;
37241;SDS011;23135;51.078;12.108;2023-04-29T05:02:03;12.38;;;7.80;;
37241;SDS011;23135;51.078;12.108;2023-04-29T05:04:29;9.80;;;7.15;;
37241;SDS011;23135;51.078;12.108;2023-04-29T05:06:55;10.75;;;7.72;;
37241;SDS011;23135;51.078;12.108;2023-04-29T05:09:20;11.98;;;7.65;;
37241;SDS011;23135;51.078;12.108;2023-04-29T05:11:46;11.05;;;7.30;;
37241;SDS011;23135;51.078;12.108;2023-04-29T05:14:11;8.90;;;6.65;;
37241;SDS011;23135;51.078;12.108;2023-04-29T05:16:37;9.88;;;6.75;;
37241;SDS011;23135;51.078;12.108;2023-04-29T05:19:02;8.20;;;6.07;;
37241;SDS011;23135;51.078;12.108;2023-04-29T05:21:28;12.80;;;6.82;;
37241;SDS011;23135;51.078;12.108;2023-04-29T05:23:54;11.23;;;7.28;;
37241;SDS011;23135;51.078;12.108;2023-04-29T05:26:19;9.32;;;6.35;;
37241;SDS011;23135;51.078;12.108;2023-04-29T05:28:45;9.90;;;6.22;;
37241;SDS011;23135;51.078;12.108;2023-04-29T05:31:10;10.48;;;6.53;;
37241;SDS011;23135;51.078;12.108;2023-04-29T05:33:36;14.32;;;6.53;;
37241;SDS011;23135;51.078;12.108;2023-04-29T05:36:02;9.07;;;5.82;;
37241;SDS011;23135;51.078;12.108;2023-04-29T05:38:27;9.00;;;5.88;;
37241;SDS011;23135;51.078;12.108;2023-04-29T05:40:56;9.50;;;6.03;;
37241;SDS011;23135;51.078;12.108;2023-04-29T05:43:22;9.57;;;6.53;;
37241;SDS011;23135;51.078;12.108;2023-04-29T05:45:47;9.85;;;6.95;;
37241;SDS011;23135;51.078;12.108;2023-04-29T05:48:13;9.32;;;6.15;;
37241;SDS011;23135;51.078;12.108;2023-04-29T05:50:39;10.30;;;6.65;;
37241;SDS011;23135;51.078;12.108;2023-04-29T05:53:04;8.27;;;6.30;;
37241;SDS011;23135;51.078;12.108;2023-04-29T05:55:30;8.85;;;6.90;;
37241;SDS011;23135;51.078;12.108;2023-04-29T05:57:56;8.52;;;6.55;;
37241;SDS011;23135;51.078;12.108;2023-04-29T06:00:21;9.77;;;7.13;;
37241;SDS011;23135;51.078;12.108;2023-04-29T06:02:47;9.13;;;5.97;;
37241;SDS011;23135;51.078;12.108;2023-04-29T06:05:13;8.35;;;5.78;;
37241;SDS011;23135;51.078;12.108;2023-04-29T06:07:39;12.80;;;6.80;;
37241;SDS011;23135;51.078;12.108;2023-04-29T06:10:06;9.65;;;5.82;;
37241;SDS011;23135;51.078;12.108;2023-04-29T06:12:32;12.10;;;6.15;;
37241;SDS011;23135;51.078;12.108;2023-04-29T06:14:58;7.28;;;5.60;;
37241;SDS011;23135;51.078;12.108;2023-04-29T06:17:23;8.57;;;5.65;;
37241;SDS011;23135;51.078;12.108;2023-04-29T06:19:49;7.28;;;5.65;;
37241;SDS011;23135;51.078;12.108;2023-04-29T06:22:15;9.15;;;5.10;;
37241;SDS011;23135;51.078;12.108;2023-04-29T06:24:41;7.80;;;5.43;;
37241;SDS011;23135;51.078;12.108;2023-04-29T06:27:06;8.85;;;6.05;;
37241;SDS011;23135;51.078;12.108;2023-04-29T06:29:32;9.35;;;6.30;;
37241;SDS011;23135;51.078;12.108;2023-04-29T06:31:57;7.10;;;5.53;;
37241;SDS011;23135;51.078;12.108;2023-04-29T06:34:24;7.28;;;4.78;;
37241;SDS011;23135;51.078;12.108;2023-04-29T06:36:50;5.78;;;4.88;;
37241;SDS011;23135;51.078;12.108;2023-04-29T06:39:15;4.97;;;4.25;;
37241;SDS011;23135;51.078;12.108;2023-04-29T06:41:41;5.30;;;4.10;;
37241;SDS011;23135;51.078;12.108;2023-04-29T06:44:07;7.63;;;4.15;;
37241;SDS011;23135;51.078;12.108;2023-04-29T06:46:32;6.40;;;4.40;;
37241;SDS011;23135;51.078;12.108;2023-04-29T06:48:58;5.22;;;4.55;;
37241;SDS011;23135;51.078;12.108;2023-04-29T06:51:23;5.28;;;3.45;;
37241;SDS011;23135;51.078;12.108;2023-04-29T06:53:49;4.95;;;3.60;;
37241;SDS011;23135;51.078;12.108;2023-04-29T06:56:14;4.80;;;3.42;;
37241;SDS011;23135;51.078;12.108;2023-04-29T06:58:40;5.88;;;4.05;;
37241;SDS011;23135;51.078;12.108;2023-04-29T07:01:06;5.28;;;3.85;;
37241;SDS011;23135;51.078;12.108;2023-04-29T07:03:32;7.00;;;3.85;;
37241;SDS011;23135;51.078;12.108;2023-04-29T07:05:58;5.93;;;3.42;;
37241;SDS011;23135;51.078;12.108;2023-04-29T07:08:23;7.55;;;3.65;;
37241;SDS011;23135;51.078;12.108;2023-04-29T07:10:53;5.93;;;3.55;;
37241;SDS011;23135;51.078;12.108;2023-04-29T07:13:19;3.53;;;2.60;;
37241;SDS011;23135;51.078;12.108;2023-04-29T07:15:45;4.20;;;3.72;;
37241;SDS011;23135;51.078;12.108;2023-04-29T07:18:10;3.88;;;2.97;;
37241;SDS011;23135;51.078;12.108;2023-04-29T07:20:36;3.13;;;2.80;;
37241;SDS011;23135;51.078;12.108;2023-04-29T07:23:01;3.35;;;2.47;;
37241;SDS011;23135;51.078;12.108;2023-04-29T07:25:27;6.38;;;3.38;;
37241;SDS011;23135;51.078;12.108;2023-04-29T07:27:53;4.30;;;2.70;;
37241;SDS011;23135;51.078;12.108;2023-04-29T07:30:20;3.17;;;2.55;;
37241;SDS011;23135;51.078;12.108;2023-04-29T07:32:45;4.13;;;2.75;;
37241;SDS011;23135;51.078;12.108;2023-04-29T07:35:11;2.85;;;2.22;;
37241;SDS011;23135;51.078;12.108;2023-04-29T07:37:36;6.30;;;2.88;;
37241;SDS011;23135;51.078;12.108;2023-04-29T07:40:02;4.15;;;3.05;;
37241;SDS011;23135;51.078;12.108;2023-04-29T07:42:28;3.45;;;2.63;;
37241;SDS011;23135;51.078;12.108;2023-04-29T07:44:54;6.35;;;2.47;;
37241;SDS011;23135;51.078;12.108;2023-04-29T07:47:19;4.03;;;3.03;;
37241;SDS011;23135;51.078;12.108;2023-04-29T07:49:45;4.68;;;3.08;;
37241;SDS011;23135;51.078;12.108;2023-04-29T07:52:11;3.83;;;2.42;;
37241;SDS011;23135;51.078;12.108;2023-04-29T07:54:36;4.85;;;3.10;;
37241;SDS011;23135;51.078;12.108;2023-04-29T07:57:02;4.30;;;3.20;;
37241;SDS011;23135;51.078;12.108;2023-04-29T07:59:29;4.95;;;3.17;;
37241;SDS011;23135;51.078;12.108;2023-04-29T08:01:54;10.40;;;5.35;;
37241;SDS011;23135;51.078;12.108;2023-04-29T08:04:21;6.28;;;3.97;;
37241;SDS011;23135;51.078;12.108;2023-04-29T08:06:47;7.30;;;4.07;;
37241;SDS011;23135;51.078;12.108;2023-04-29T08:09:13;6.90;;;4.72;;
37241;SDS011;23135;51.078;12.108;2023-04-29T08:11:38;4.47;;;3.40;;
37241;SDS011;23135;51.078;12.108;2023-04-29T08:14:04;5.72;;;4.25;;
37241;SDS011;23135;51.078;12.108;2023-04-29T08:16:30;6.30;;;4.30;;
37241;SDS011;23135;51.078;12.108;2023-04-29T08:18:56;9.40;;;4.25;;
37241;SDS011;23135;51.078;12.108;2023-04-29T08:21:21;7.20;;;4.50;;
37241;SDS011;23135;51.078;12.108;2023-04-29T08:23:48;7.25;;;4.78;;
37241;SDS011;23135;51.078;12.108;2023-04-29T08:26:14;7.15;;;5.10;;
37241;SDS011;23135;51.078;12.108;2023-04-29T08:28:40;7.45;;;5.60;;
37241;SDS011;23135;51.078;12.108;2023-04-29T08:31:05;12.25;;;5.80;;
37241;SDS011;23135;51.078;12.108;2023-04-29T08:33:35;9.45;;;4.45;;
37241;SDS011;23135;51.078;12.108;2023-04-29T08:36:01;9.00;;;6.07;;
37241;SDS011;23135;51.078;12.108;2023-04-29T08:38:28;6.72;;;4.78;;
37241;SDS011;23135;51.078;12.108;2023-04-29T08:40:54;6.03;;;4.88;;
37241;SDS011;23135;51.078;12.108;2023-04-29T08:43:20;7.78;;;5.00;;
37241;SDS011;23135;51.078;12.108;2023-04-29T08:45:47;6.18;;;4.07;;
37241;SDS011;23135;51.078;12.108;2023-04-29T08:48:14;5.88;;;4.55;;
37241;SDS011;23135;51.078;12.108;2023-04-29T08:50:40;8.30;;;4.50;;
37241;SDS011;23135;51.078;12.108;2023-04-29T08:53:07;8.38;;;5.13;;
37241;SDS011;23135;51.078;12.108;2023-04-29T08:55:34;7.35;;;4.68;;
37241;SDS011;23135;51.078;12.108;2023-04-29T08:58:04;6.20;;;4.55;;
37241;SDS011;23135;51.078;12.108;2023-04-29T09:00:31;10.38;;;6.45;;
37241;SDS011;23135;51.078;12.108;2023-04-29T09:02:58;7.55;;;5.30;;
37241;SDS011;23135;51.078;12.108;2023-04-29T09:05:26;10.57;;;6.35;;
37241;SDS011;23135;51.078;12.108;2023-04-29T09:07:52;4.25;;;3.42;;
37241;SDS011;23135;51.078;12.108;2023-04-29T09:10:20;4.40;;;3.53;;
37241;SDS011;23135;51.078;12.108;2023-04-29T09:12:46;3.85;;;3.25;;
37241;SDS011;23135;51.078;12.108;2023-04-29T09:15:12;5.20;;;2.58;;
37241;SDS011;23135;51.078;12.108;2023-04-29T09:22:50;7.57;;;4.22;;
37241;SDS011;23135;51.078;12.108;2023-04-29T09:25:16;7.45;;;5.07;;
37241;SDS011;23135;51.078;12.108;2023-04-29T09:27:43;9.65;;;4.50;;
37241;SDS011;23135;51.078;12.108;2023-04-29T09:30:08;8.25;;;5.25;;
37241;SDS011;23135;51.078;12.108;2023-04-29T09:32:34;7.60;;;5.00;;
37241;SDS011;23135;51.078;12.108;2023-04-29T09:37:45;9.00;;;5.30;;
37241;SDS011;23135;51.078;12.108;2023-04-29T09:40:26;8.35;;;5.50;;
37241;SDS011;23135;51.078;12.108;2023-04-29T09:42:55;15.32;;;9.90;;
37241;SDS011;23135;51.078;12.108;2023-04-29T09:45:31;13.05;;;9.15;;
37241;SDS011;23135;51.078;12.108;2023-04-29T09:48:01;10.10;;;7.75;;
37241;SDS011;23135;51.078;12.108;2023-04-29T09:50:27;11.30;;;7.53;;
37241;SDS011;23135;51.078;12.108;2023-04-29T09:52:53;10.93;;;8.18;;
37241;SDS011;23135;51.078;12.108;2023-04-29T09:55:19;12.20;;;9.18;;
37241;SDS011;23135;51.078;12.108;2023-04-29T09:57:44;14.32;;;9.50;;
37241;SDS011;23135;51.078;12.108;2023-04-29T10:00:11;14.98;;;10.90;;
37241;SDS011;23135;51.078;12.108;2023-04-29T10:02:39;17.88;;;12.48;;
37241;SDS011;23135;51.078;12.108;2023-04-29T10:05:06;21.55;;;16.90;;
37241;SDS011;23135;51.078;12.108;2023-04-29T10:07:34;18.90;;;14.68;;
37241;SDS011;23135;51.078;12.108;2023-04-29T10:10:03;19.75;;;16.02;;
37241;SDS011;23135;51.078;12.108;2023-04-29T10:12:30;19.92;;;15.88;;
37241;SDS011;23135;51.078;12.108;2023-04-29T10:15:02;19.48;;;15.98;;
37241;SDS011;23135;51.078;12.108;2023-04-29T10:17:35;21.75;;;15.88;;
37241;SDS011;23135;51.078;12.108;2023-04-29T10:20:07;18.63;;;14.63;;
37241;SDS011;23135;51.078;12.108;2023-04-29T10:22:41;18.00;;;13.25;;
37241;SDS011;23135;51.078;12.108;2023-04-29T10:25:11;17.88;;;14.38;;
37241;SDS011;23135;51.078;12.108;2023-04-29T10:27:38;21.60;;;14.27;;
37241;SDS011;23135;51.078;12.108;2023-04-29T10:30:12;20.90;;;14.63;;
37241;SDS011;23135;51.078;12.108;2023-04-29T10:32:42;25.20;;;16.23;;
37241;SDS011;23135;51.078;12.108;2023-04-29T10:35:09;22.40;;;15.57;;
37241;SDS011;23135;51.078;12.108;2023-04-29T10:37:38;25.85;;;16.85;;
37241;SDS011;23135;51.078;12.108;2023-04-29T10:42:47;24.30;;;16.70;;
37241;SDS011;23135;51.078;12.108;2023-04-29T10:45:21;23.67;;;16.77;;
37241;SDS011;23135;51.078;12.108;2023-04-29T10:50:33;18.85;;;14.32;;
37241;SDS011;23135;51.078;12.108;2023-04-29T10:53:23;22.77;;;14.45;;
37241;SDS011;23135;51.078;12.108;2023-04-29T10:56:08;23.42;;;14.43;;
37241;SDS011;23135;51.078;12.108;2023-04-29T11:01:09;23.35;;;14.35;;
37241;SDS011;23135;51.078;12.108;2023-04-29T11:03:55;21.67;;;12.93;;
37241;SDS011;23135;51.078;12.108;2023-04-29T11:11:32;15.38;;;10.82;;
37241;SDS011;23135;51.078;12.108;2023-04-29T11:14:11;14.98;;;10.05;;
37241;SDS011;23135;51.078;12.108;2023-04-29T11:16:47;19.40;;;12.43;;
37241;SDS011;23135;51.078;12.108;2023-04-29T11:19:18;19.35;;;12.25;;
37241;SDS011;23135;51.078;12.108;2023-04-29T11:21:44;18.75;;;12.35;;
37241;SDS011;23135;51.078;12.108;2023-04-29T11:24:11;13.82;;;9.18;;
37241;SDS011;23135;51.078;12.108;2023-04-29T11:26:39;13.80;;;8.52;;
37241;SDS011;23135;51.078;12.108;2023-04-29T11:29:05;7.82;;;6.28;;
37241;SDS011;23135;51.078;12.108;2023-04-29T11:31:34;8.85;;;5.60;;
37241;SDS011;23135;51.078;12.108;2023-04-29T11:34:02;8.40;;;5.03;;
37241;SDS011;23135;51.078;12.108;2023-04-29T11:36:30;6.88;;;5.53;;
37241;SDS011;23135;51.078;12.108;2023-04-29T11:38:56;7.35;;;5.22;;
37241;SDS011;23135;51.078;12.108;2023-04-29T11:41:25;7.25;;;5.63;;
37241;SDS011;23135;51.078;12.108;2023-04-29T11:43:57;6.55;;;5.65;;
37241;SDS011;23135;51.078;12.108;2023-04-29T11:46:24;6.90;;;4.68;;
37241;SDS011;23135;51.078;12.108;2023-04-29T11:48:52;6.53;;;5.55;;
37241;SDS011;23135;51.078;12.108;2023-04-29T11:51:18;8.88;;;5.38;;
37241;SDS011;23135;51.078;12.108;2023-04-29T11:53:44;7.72;;;6.55;;
37241;SDS011;23135;51.078;12.108;2023-04-29T11:56:10;7.72;;;6.45;;
37241;SDS011;23135;51.078;12.108;2023-04-29T11:58:36;7.60;;;6.80;;
37241;SDS011;23135;51.078;12.108;2023-04-29T12:01:02;8.25;;;6.15;;
37241;SDS011;23135;51.078;12.108;2023-04-29T12:03:28;12.07;;;7.22;;
37241;SDS011;23135;51.078;12.108;2023-04-29T12:05:55;7.70;;;6.70;;
37241;SDS011;23135;51.078;12.108;2023-04-29T12:08:22;7.78;;;6.35;;
37241;SDS011;23135;51.078;12.108;2023-04-29T12:10:49;9.38;;;7.53;;
37241;SDS011;23135;51.078;12.108;2023-04-29T12:13:15;7.55;;;6.82;;
37241;SDS011;23135;51.078;12.108;2023-04-29T12:15:42;12.82;;;6.90;;
37241;SDS011;23135;51.078;12.108;2023-04-29T12:18:10;9.65;;;7.47;;
37241;SDS011;23135;51.078;12.108;2023-04-29T12:20:36;8.30;;;6.78;;
37241;SDS011;23135;51.078;12.108;2023-04-29T12:23:12;12.43;;;7.32;;
37241;SDS011;23135;51.078;12.108;2023-04-29T12:25:40;9.07;;;6.88;;
37241;SDS011;23135;51.078;12.108;2023-04-29T12:28:12;11.73;;;6.82;;
37241;SDS011;23135;51.078;12.108;2023-04-29T12:30:38;7.60;;;6.50;;
37241;SDS011;23135;51.078;12.108;2023-04-29T12:33:06;9.50;;;6.43;;
37241;SDS011;23135;51.078;12.108;2023-04-29T12:35:33;7.88;;;6.75;;
37241;SDS011;23135;51.078;12.108;2023-04-29T12:37:59;9.23;;;6.93;;
37241;SDS011;23135;51.078;12.108;2023-04-29T12:40:25;9.85;;;8.02;;
37241;SDS011;23135;51.078;12.108;2023-04-29T12:42:53;12.82;;;7.60;;
37241;SDS011;23135;51.078;12.108;2023-04-29T12:45:29;9.57;;;7.97;;
37241;SDS011;23135;51.078;12.108;2023-04-29T12:47:56;9.13;;;6.93;;
37241;SDS011;23135;51.078;12.108;2023-04-29T12:50:35;7.63;;;6.22;;
37241;SDS011;23135;51.078;12.108;2023-04-29T12:53:03;7.25;;;6.25;;
37241;SDS011;23135;51.078;12.108;2023-04-29T12:55:31;7.97;;;6.60;;
37241;SDS011;23135;51.078;12.108;2023-04-29T12:58:01;7.38;;;6.68;;
37241;SDS011;23135;51.078;12.108;2023-04-29T13:00:28;9.43;;;7.70;;
37241;SDS011;23135;51.078;12.108;2023-04-29T13:02:53;11.65;;;8.00;;
37241;SDS011;23135;51.078;12.108;2023-04-29T13:05:19;11.48;;;7.47;;
37241;SDS011;23135;51.078;12.108;2023-04-29T13:07:46;7.38;;;6.68;;
37241;SDS011;23135;51.078;12.108;2023-04-29T13:10:12;8.57;;;7.63;;
37241;SDS011;23135;51.078;12.108;2023-04-29T13:12:37;9.40;;;7.95;;
37241;SDS011;23135;51.078;12.108;2023-04-29T13:15:04;11.13;;;7.97;;
37241;SDS011;23135;51.078;12.108;2023-04-29T13:17:31;10.05;;;8.25;;
37241;SDS011;23135;51.078;12.108;2023-04-29T13:19:57;10.27;;;8.35;;
37241;SDS011;23135;51.078;12.108;2023-04-29T13:22:23;10.30;;;7.60;;
37241;SDS011;23135;51.078;12.108;2023-04-29T13:24:48;11.35;;;8.80;;
37241;SDS011;23135;51.078;12.108;2023-04-29T13:27:14;12.05;;;7.60;;
37241;SDS011;23135;51.078;12.108;2023-04-29T13:29:39;12.95;;;7.50;;
37241;SDS011;23135;51.078;12.108;2023-04-29T13:32:05;9.25;;;7.20;;
37241;SDS011;23135;51.078;12.108;2023-04-29T13:34:32;10.15;;;6.95;;
37241;SDS011;23135;51.078;12.108;2023-04-29T13:36:58;9.73;;;7.65;;
37241;SDS011;23135;51.078;12.108;2023-04-29T13:39:24;10.77;;;7.22;;
37241;SDS011;23135;51.078;12.108;2023-04-29T13:41:49;11.27;;;8.30;;
37241;SDS011;23135;51.078;12.108;2023-04-29T13:44:15;10.63;;;7.55;;
37241;SDS011;23135;51.078;12.108;2023-04-29T13:46:41;9.32;;;7.43;;
37241;SDS011;23135;51.078;12.108;2023-04-29T13:49:06;11.32;;;8.40;;
37241;SDS011;23135;51.078;12.108;2023-04-29T13:51:32;11.57;;;6.53;;
37241;SDS011;23135;51.078;12.108;2023-04-29T13:53:57;12.52;;;6.68;;
37241;SDS011;23135;51.078;12.108;2023-04-29T13:56:23;7.20;;;5.93;;
37241;SDS011;23135;51.078;12.108;2023-04-29T13:58:50;8.45;;;5.78;;
37241;SDS011;23135;51.078;12.108;2023-04-29T14:01:16;5.68;;;4.90;;
37241;SDS011;23135;51.078;12.108;2023-04-29T14:03:42;7.50;;;5.10;;
37241;SDS011;23135;51.078;12.108;2023-04-29T14:06:08;7.65;;;5.45;;
37241;SDS011;23135;51.078;12.108;2023-04-29T14:08:34;6.50;;;5.80;;
37241;SDS011;23135;51.078;12.108;2023-04-29T14:10:59;7.82;;;5.72;;
37241;SDS011;23135;51.078;12.108;2023-04-29T14:13:25;6.60;;;6.00;;
37241;SDS011;23135;51.078;12.108;2023-04-29T14:15:50;7.45;;;5.07;;
37241;SDS011;23135;51.078;12.108;2023-04-29T14:18:18;5.85;;;4.78;;
37241;SDS011;23135;51.078;12.108;2023-04-29T14:20:43;6.38;;;5.68;;
37241;SDS011;23135;51.078;12.108;2023-04-29T14:23:09;6.20;;;5.25;;
37241;SDS011;23135;51.078;12.108;2023-04-29T14:25:34;9.50;;;6.18;;
37241;SDS011;23135;51.078;12.108;2023-04-29T14:28:00;9.70;;;6.10;;
37241;SDS011;23135;51.078;12.108;2023-04-29T14:30:25;14.25;;;6.05;;
37241;SDS011;23135;51.078;12.108;2023-04-29T14:32:51;18.10;;;6.85;;
37241;SDS011;23135;51.078;12.108;2023-04-29T14:35:17;7.85;;;5.28;;
37241;SDS011;23135;51.078;12.108;2023-04-29T14:37:42;8.80;;;5.85;;
37241;SDS011;23135;51.078;12.108;2023-04-29T14:40:08;11.27;;;5.90;;
37241;SDS011;23135;51.078;12.108;2023-04-29T14:42:34;6.97;;;6.05;;
37241;SDS011;23135;51.078;12.108;2023-04-29T14:45:00;9.70;;;5.40;;
37241;SDS011;23135;51.078;12.108;2023-04-29T14:47:25;7.65;;;5.72;;
37241;SDS011;23135;51.078;12.108;2023-04-29T14:49:52;7.10;;;5.90;;
37241;SDS011;23135;51.078;12.108;2023-04-29T14:52:18;9.07;;;6.35;;